Atlantic Companion — SKPE — position and weather

sailwx.info

Track history (hours):
 
Tides and Currents Weather Stations Pressure Air Temp Water Temp Dewpoint Dewpoint Depression Visibility Wind Speed Wind Dir Waves Ship Positions

Atlantic Companion

Last reported at 2014-Nov-25 21:33 UTC. Time now 2014-Nov-25 22:00 UTC.
Position N 52°24' W 005°32'.

Length 292 m; beam 32.3 m; draft 11.6 m.

Type: Cargo ship. MMSI: 265142000.

Date/timePositionNaut miles runAvg speedWind from/ knotsBaromVisibWave heightAir tempDewpointWater temp
2014-Nov-25 21:33N 52°24' W 005°32'8912.2
2014-Nov-25 14:14N 53°31' W 003°53'1218.4
2014-Nov-25 13:33N 53°33' W 003°33'1716.6
2014-Nov-25 12:33N 53°30' W 003°05'4 3.7
2014-Nov-25 11:33N 53°27' W 003°01'1 0.5
2014-Nov-25 10:28N 53°28' W 003°01'0 0.0
2014-Nov-25 09:31N 53°28' W 003°01'0 0.0
2014-Nov-25 08:31N 53°28' W 003°01'0 0.0
2014-Nov-25 07:31N 53°28' W 003°01'0 0.0
2014-Nov-25 06:31N 53°28' W 003°01'0 0.0
2014-Nov-25 05:31N 53°28' W 003°01'0 0.0
2014-Nov-25 04:31N 53°28' W 003°01'0 0.0
2014-Nov-25 03:31N 53°28' W 003°01'0 0.0
2014-Nov-25 02:31N 53°28' W 003°01'0 0.0
2014-Nov-25 01:31N 53°28' W 003°01'0 0.0
2014-Nov-25 00:31N 53°28' W 003°01'0 0.0
2014-Nov-24 23:32N 53°28' W 003°01'1 0.7
2014-Nov-24 22:33N 53°27' W 003°01'2 1.6
2014-Nov-24 21:33N 53°28' W 003°03'1110.7
2014-Nov-24 20:33N 53°31' W 003°20'1716.5
2014-Nov-24 19:32N 53°30' W 003°49'8210.0
2014-Nov-24 11:21N 52°38' W 005°34'1316.6
2014-Nov-24 10:33N 52°26' W 005°44'1817.9
2014-Nov-24 09:33N 52°11' W 005°59'1817.8
2014-Nov-24 08:33N 51°60' W 006°22'1817.8
2014-Nov-24 07:34N 51°54' W 006°49'1717.2
2014-Nov-24 06:34N 51°48' W 007°15'1717.1
2014-Nov-24 05:34N 51°42' W 007°41'1717.0
2014-Nov-24 04:33N 51°36' W 008°07'1717.0
2014-Nov-24 03:34N 51°30' W 008°32'1716.7
2014-Nov-24 02:33N 51°24' W 008°58'1616.5
2014-Nov-24 01:33N 51°19' W 009°23'1616.1
2014-Nov-24 00:34N 51°15' W 009°48'1615.8
2014-Nov-23 23:34N 51°12' W 010°12'19016.4
2014-Nov-23 12:00N 50°30' W 015°06'9716.2 160 / 101021.010.8 10.2 12.1
2014-Nov-23 06:00N 50°12' W 017°36'9816.3 180 / 161020.010.8 8.8 10.3
2014-Nov-23 00:00N 49°54' W 020°06'14211.8 170 / 111020.710.8 8.5 10.5
2014-Nov-22 12:00N 49°30' W 023°42'9215.3 320 / 141023.010.8 7.8 10.8
2014-Nov-22 06:00N 49°12' W 026°00'10016.7 310 / 151021.310.8 7.3 10.8
2014-Nov-22 00:00N 48°54' W 028°30'38215.9 310 / 151022.210.8 6.3 10.9
2014-Nov-21 00:00N 47°42' W 037°54'19015.9 1019.1 5.4 7.2 13.4
2014-Nov-20 12:00N 47°06' W 042°30'10116.9 290 / 331016.0 5.4 5.5 9.4
2014-Nov-20 06:00N 46°42' W 044°54'9716.1 290 / 361013.110.8 5.4 6.1
2014-Nov-20 00:00N 46°24' W 047°12'68017.1 280 / 221008.810.8 5.4 3.3
2014-Nov-18 08:10N 44°26' W 063°05'1016.7
2014-Nov-18 07:33N 44°25' W 063°20'1111.3
2014-Nov-18 06:33N 44°33' W 063°31'9 9.2
2014-Nov-18 05:33N 44°41' W 063°37'1 0.8
2014-Nov-18 04:28N 44°40' W 063°38'0 0.0
2014-Nov-18 03:28N 44°40' W 063°38'0 0.0
2014-Nov-18 02:31N 44°40' W 063°38'0 0.0
2014-Nov-18 01:16N 44°40' W 063°38'0 0.0
2014-Nov-18 00:31N 44°40' W 063°38'0 0.0
2014-Nov-17 23:28N 44°40' W 063°38'0 0.0
2014-Nov-17 22:19N 44°40' W 063°38'0 0.1
2014-Nov-17 21:33N 44°40' W 063°38'4 4.2
2014-Nov-17 20:33N 44°37' W 063°33'1312.6
2014-Nov-17 19:33N 44°26' W 063°27'33415.8
2014-Nov-16 22:25N 40°36' W 068°56'1817.0
2014-Nov-16 21:22N 40°28' W 069°17'1417.2
2014-Nov-16 20:33N 40°27' W 069°35'3416.7
2014-Nov-16 18:32N 40°26' W 070°19'5117.0
2014-Nov-16 15:34N 40°25' W 071°26'1717.2
2014-Nov-16 14:34N 40°24' W 071°48'1717.1
2014-Nov-16 13:34N 40°24' W 072°11'1716.8
2014-Nov-16 12:33N 40°23' W 072°33'1716.9
2014-Nov-16 11:32N 40°23' W 072°55'1916.8
2014-Nov-16 10:23N 40°23' W 073°21'1113.1
2014-Nov-16 09:32N 40°25' W 073°36'10 9.9
2014-Nov-16 08:33N 40°26' W 073°48'1110.7
2014-Nov-16 07:33N 40°31' W 074°00'9 9.3
2014-Nov-16 06:33N 40°39' W 074°08'1 1.5
2014-Nov-16 05:33N 40°40' W 074°09'0 0.0
2014-Nov-16 04:30N 40°40' W 074°09'0 0.0
2014-Nov-16 03:30N 40°40' W 074°09'0 0.0
2014-Nov-16 02:30N 40°40' W 074°09'0 0.0
2014-Nov-16 01:33N 40°40' W 074°09'0 0.0
2014-Nov-16 00:30N 40°40' W 074°09'0 0.0
2014-Nov-15 23:33N 40°40' W 074°09'0 0.2
2014-Nov-15 22:33N 40°40' W 074°09'5 4.6
2014-Nov-15 21:33N 40°38' W 074°03'  
Track history (hours):
 
Tides and Currents Weather Stations Pressure Air Temp Water Temp Dewpoint Dewpoint Depression Visibility Wind Speed Wind Dir Waves Ship Positions

Atlantic Companion

Last reported at 2014-Nov-25 21:33 UTC. Time now 2014-Nov-25 22:00 UTC.
Position N 52°24' W 005°32'.

Length 292 m; beam 32.3 m; draft 11.6 m.

Type: Cargo ship. MMSI: 265142000.

Date/timePositionNaut miles runAvg speedWind from/ knotsBaromVisibWave heightAir tempDewpointWater temp
2014-Nov-25 21:33N 52°24' W 005°32'8912.2
2014-Nov-25 14:14N 53°31' W 003°53'1218.4
2014-Nov-25 13:33N 53°33' W 003°33'1716.6
2014-Nov-25 12:33N 53°30' W 003°05'4 3.7
2014-Nov-25 11:33N 53°27' W 003°01'1 0.5
2014-Nov-25 10:28N 53°28' W 003°01'0 0.0
2014-Nov-25 09:31N 53°28' W 003°01'0 0.0
2014-Nov-25 08:31N 53°28' W 003°01'0 0.0
2014-Nov-25 07:31N 53°28' W 003°01'0 0.0
2014-Nov-25 06:31N 53°28' W 003°01'0 0.0
2014-Nov-25 05:31N 53°28' W 003°01'0 0.0
2014-Nov-25 04:31N 53°28' W 003°01'0 0.0
2014-Nov-25 03:31N 53°28' W 003°01'0 0.0
2014-Nov-25 02:31N 53°28' W 003°01'0 0.0
2014-Nov-25 01:31N 53°28' W 003°01'0 0.0
2014-Nov-25 00:31N 53°28' W 003°01'0 0.0
2014-Nov-24 23:32N 53°28' W 003°01'1 0.7
2014-Nov-24 22:33N 53°27' W 003°01'2 1.6
2014-Nov-24 21:33N 53°28' W 003°03'1110.7
2014-Nov-24 20:33N 53°31' W 003°20'1716.5
2014-Nov-24 19:32N 53°30' W 003°49'8210.0
2014-Nov-24 11:21N 52°38' W 005°34'1316.6
2014-Nov-24 10:33N 52°26' W 005°44'1817.9
2014-Nov-24 09:33N 52°11' W 005°59'1817.8
2014-Nov-24 08:33N 51°60' W 006°22'1817.8
2014-Nov-24 07:34N 51°54' W 006°49'1717.2
2014-Nov-24 06:34N 51°48' W 007°15'1717.1
2014-Nov-24 05:34N 51°42' W 007°41'1717.0
2014-Nov-24 04:33N 51°36' W 008°07'1717.0
2014-Nov-24 03:34N 51°30' W 008°32'1716.7
2014-Nov-24 02:33N 51°24' W 008°58'1616.5
2014-Nov-24 01:33N 51°19' W 009°23'1616.1
2014-Nov-24 00:34N 51°15' W 009°48'1615.8
2014-Nov-23 23:34N 51°12' W 010°12'19016.4
2014-Nov-23 12:00N 50°30' W 015°06'9716.2 160 / 101021.010.8 10.2 12.1
2014-Nov-23 06:00N 50°12' W 017°36'9816.3 180 / 161020.010.8 8.8 10.3
2014-Nov-23 00:00N 49°54' W 020°06'14211.8 170 / 111020.710.8 8.5 10.5
2014-Nov-22 12:00N 49°30' W 023°42'9215.3 320 / 141023.010.8 7.8 10.8
2014-Nov-22 06:00N 49°12' W 026°00'10016.7 310 / 151021.310.8 7.3 10.8
2014-Nov-22 00:00N 48°54' W 028°30'38215.9 310 / 151022.210.8 6.3 10.9
2014-Nov-21 00:00N 47°42' W 037°54'19015.9 1019.1 5.4 7.2 13.4
2014-Nov-20 12:00N 47°06' W 042°30'10116.9 290 / 331016.0 5.4 5.5 9.4
2014-Nov-20 06:00N 46°42' W 044°54'9716.1 290 / 361013.110.8 5.4 6.1
2014-Nov-20 00:00N 46°24' W 047°12'68017.1 280 / 221008.810.8 5.4 3.3
2014-Nov-18 08:10N 44°26' W 063°05'1016.7
2014-Nov-18 07:33N 44°25' W 063°20'1111.3
2014-Nov-18 06:33N 44°33' W 063°31'9 9.2
2014-Nov-18 05:33N 44°41' W 063°37'1 0.8
2014-Nov-18 04:28N 44°40' W 063°38'0 0.0
2014-Nov-18 03:28N 44°40' W 063°38'0 0.0
2014-Nov-18 02:31N 44°40' W 063°38'0 0.0
2014-Nov-18 01:16N 44°40' W 063°38'0 0.0
2014-Nov-18 00:31N 44°40' W 063°38'0 0.0
2014-Nov-17 23:28N 44°40' W 063°38'0 0.0
2014-Nov-17 22:19N 44°40' W 063°38'0 0.1
2014-Nov-17 21:33N 44°40' W 063°38'4 4.2
2014-Nov-17 20:33N 44°37' W 063°33'1312.6
2014-Nov-17 19:33N 44°26' W 063°27'33415.8
2014-Nov-16 22:25N 40°36' W 068°56'1817.0
2014-Nov-16 21:22N 40°28' W 069°17'1417.2
2014-Nov-16 20:33N 40°27' W 069°35'3416.7
2014-Nov-16 18:32N 40°26' W 070°19'5117.0
2014-Nov-16 15:34N 40°25' W 071°26'1717.2
2014-Nov-16 14:34N 40°24' W 071°48'1717.1
2014-Nov-16 13:34N 40°24' W 072°11'1716.8
2014-Nov-16 12:33N 40°23' W 072°33'1716.9
2014-Nov-16 11:32N 40°23' W 072°55'1916.8
2014-Nov-16 10:23N 40°23' W 073°21'1113.1
2014-Nov-16 09:32N 40°25' W 073°36'10 9.9
2014-Nov-16 08:33N 40°26' W 073°48'1110.7
2014-Nov-16 07:33N 40°31' W 074°00'9 9.3
2014-Nov-16 06:33N 40°39' W 074°08'1 1.5
2014-Nov-16 05:33N 40°40' W 074°09'0 0.0
2014-Nov-16 04:30N 40°40' W 074°09'0 0.0
2014-Nov-16 03:30N 40°40' W 074°09'0 0.0
2014-Nov-16 02:30N 40°40' W 074°09'0 0.0
2014-Nov-16 01:33N 40°40' W 074°09'0 0.0
2014-Nov-16 00:30N 40°40' W 074°09'0 0.0
2014-Nov-15 23:33N 40°40' W 074°09'0 0.2
2014-Nov-15 22:33N 40°40' W 074°09'5 4.6
2014-Nov-15 21:33N 40°38' W 074°03'  

Dump ship's entire track history